Time;durP1;ratioP1;P1;durP2;ratioP2;P2;SDS_P1;SDS_P2;PMS_P1;PMS_P2;Temp;Humidity;BMP_temperature;BMP_pressure;BME280_temperature;BME280_humidity;BME280_pressure;Samples;Min_cycle;Max_cycle;Signal;HPM_P1;HPM_P2
2023/12/30 00:02:04;;;;;;;7.18;1.88;;;;;;;7.05;100.00;100750.84;5023670;28;20418;-63
2023/12/30 00:04:30;;;;;;;12.07;2.38;;;;;;;7.04;100.00;100756.78;5027698;28;20672;-62
2023/12/30 00:06:55;;;;;;;10.85;2.35;;;;;;;7.05;100.00;100758.56;5027813;28;20052;-62
2023/12/30 00:09:20;;;;;;;13.82;2.47;;;;;;;7.02;100.00;100758.41;5027992;28;20744;-63
2023/12/30 00:11:45;;;;;;;9.88;1.80;;;;;;;7.01;100.00;100769.53;5026711;28;20024;-61
2023/12/30 00:14:11;;;;;;;9.32;1.95;;;;;;;7.01;100.00;100765.28;5026764;28;20072;-61
2023/12/30 00:16:39;;;;;;;15.93;2.53;;;;;;;6.98;100.00;100767.69;5024635;28;20063;-62
2023/12/30 00:19:04;;;;;;;10.30;1.98;;;;;;;6.94;100.00;100764.09;5025266;28;20041;-62
2023/12/30 00:21:29;;;;;;;11.38;1.90;;;;;;;6.90;100.00;100767.34;5027842;28;20079;-63
2023/12/30 00:23:55;;;;;;;9.35;1.60;;;;;;;6.91;100.00;100769.09;5027878;28;20025;-63
2023/12/30 00:26:25;;;;;;;6.80;1.35;;;;;;;6.90;100.00;100777.66;5025483;28;20017;-62
2023/12/30 00:28:51;;;;;;;7.57;1.90;;;;;;;6.82;100.00;100785.03;5025264;28;20096;-61
2023/12/30 00:31:23;;;;;;;9.57;1.70;;;;;;;6.85;100.00;100786.88;5024410;28;20279;-63
2023/12/30 00:33:49;;;;;;;10.68;1.42;;;;;;;6.84;100.00;100797.97;5023955;28;20047;-63
2023/12/30 00:36:14;;;;;;;11.80;1.92;;;;;;;6.82;100.00;100794.44;5020762;28;20100;-62
2023/12/30 00:38:39;;;;;;;9.25;1.70;;;;;;;6.82;100.00;100804.75;5025882;28;20083;-62
2023/12/30 00:41:05;;;;;;;8.35;1.75;;;;;;;6.79;100.00;100809.75;5025964;28;20017;-63
2023/12/30 00:43:31;;;;;;;8.20;1.90;;;;;;;6.78;100.00;100808.00;5014617;28;20022;-62
2023/12/30 00:45:57;;;;;;;8.13;1.70;;;;;;;6.76;100.00;100809.63;5024897;28;20069;-62
2023/12/30 00:48:22;;;;;;;9.07;1.80;;;;;;;6.75;100.00;100808.72;5027610;28;20045;-63
2023/12/30 00:50:48;;;;;;;8.32;1.50;;;;;;;6.76;100.00;100810.50;5024442;28;20519;-62
2023/12/30 00:53:14;;;;;;;7.95;1.90;;;;;;;6.75;100.00;100813.00;5025523;28;20052;-63
2023/12/30 00:55:39;;;;;;;8.02;1.63;;;;;;;6.70;100.00;100808.53;5026743;28;20025;-63
2023/12/30 00:58:04;;;;;;;5.95;1.60;;;;;;;6.71;100.00;100818.00;5027162;28;20025;-63
2023/12/30 01:00:29;;;;;;;4.78;1.20;;;;;;;6.71;100.00;100812.84;5025901;28;20026;-63
2023/12/30 01:02:55;;;;;;;7.72;1.42;;;;;;;6.72;100.00;100819.78;5026301;28;20037;-62
2023/12/30 01:05:20;;;;;;;8.50;1.98;;;;;;;6.71;100.00;100820.56;5027927;28;20029;-63
2023/12/30 01:07:45;;;;;;;11.43;1.77;;;;;;;6.70;100.00;100821.41;5027138;28;20372;-63
2023/12/30 01:10:11;;;;;;;5.97;1.70;;;;;;;6.72;100.00;100826.63;5025359;28;20076;-62
2023/12/30 01:12:36;;;;;;;9.18;1.95;;;;;;;6.69;100.00;100829.06;5021861;28;20033;-62
2023/12/30 01:15:01;;;;;;;8.30;1.92;;;;;;;6.68;100.00;100828.16;5016315;28;20029;-62
2023/12/30 01:17:27;;;;;;;8.15;1.73;;;;;;;6.68;100.00;100832.44;5026744;28;20041;-63
2023/12/30 01:19:52;;;;;;;10.80;1.77;;;;;;;6.67;100.00;100833.25;5024775;28;20379;-63
2023/12/30 01:22:17;;;;;;;9.88;1.95;;;;;;;6.68;100.00;100838.47;5027141;28;20120;-63
2023/12/30 01:24:42;;;;;;;7.65;1.33;;;;;;;6.68;100.00;100842.72;5026415;28;20021;-62
2023/12/30 01:27:08;;;;;;;8.50;2.33;;;;;;;6.67;100.00;100839.28;5026044;28;20276;-63
2023/12/30 01:29:33;;;;;;;6.10;1.60;;;;;;;6.66;100.00;100844.34;5025387;28;20134;-62
2023/12/30 01:31:59;;;;;;;7.03;1.48;;;;;;;6.66;100.00;100855.53;5024751;28;20040;-62
2023/12/30 01:34:24;;;;;;;7.18;2.05;;;;;;;6.66;100.00;100852.06;5027113;28;20018;-63
2023/12/30 01:36:49;;;;;;;6.13;1.33;;;;;;;6.66;100.00;100864.94;5025416;28;20212;-62
2023/12/30 01:39:14;;;;;;;6.50;1.70;;;;;;;6.65;100.00;100865.75;5026577;28;20025;-63
2023/12/30 01:41:41;;;;;;;11.20;1.75;;;;;;;6.65;100.00;100870.91;5023360;28;20045;-63
2023/12/30 01:44:06;;;;;;;10.77;1.60;;;;;;;6.68;100.00;100858.19;5026838;28;20034;-63
2023/12/30 01:46:32;;;;;;;9.10;1.65;;;;;;;6.66;100.00;100860.69;5024724;28;20052;-63
2023/12/30 01:48:58;;;;;;;10.15;2.30;;;;;;;6.69;100.00;100858.25;5024706;28;20248;-63
2023/12/30 01:51:23;;;;;;;10.32;1.90;;;;;;;6.68;100.00;100863.31;5026128;28;20378;-62
2023/12/30 01:53:49;;;;;;;8.25;1.95;;;;;;;6.67;100.00;100861.56;5025704;28;20029;-63
2023/12/30 01:56:17;;;;;;;12.88;2.15;;;;;;;6.66;100.00;100868.41;5026039;28;20067;-62
2023/12/30 01:58:43;;;;;;;15.50;2.45;;;;;;;6.64;100.00;100862.28;5024142;28;20208;-63
2023/12/30 02:01:09;;;;;;;9.80;2.10;;;;;;;6.64;100.00;100864.88;5027396;28;20124;-62
2023/12/30 02:03:35;;;;;;;10.43;2.08;;;;;;;6.65;100.00;100868.34;5020744;28;20091;-62
2023/12/30 02:06:01;;;;;;;7.60;1.60;;;;;;;6.66;100.00;100872.66;5022638;28;20033;-63
2023/12/30 02:08:27;;;;;;;10.27;2.03;;;;;;;6.66;100.00;100882.97;5025489;28;20021;-62
2023/12/30 02:10:52;;;;;;;8.90;2.10;;;;;;;6.66;100.00;100881.28;5026112;28;20432;-62
2023/12/30 02:13:17;;;;;;;9.05;2.03;;;;;;;6.65;100.00;100878.63;5025896;28;20067;-62
2023/12/30 02:15:43;;;;;;;9.20;1.55;;;;;;;6.63;100.00;100880.25;5023252;28;20028;-62
2023/12/30 02:18:08;;;;;;;6.80;1.38;;;;;;;6.59;100.00;100874.06;5023401;28;20025;-63
2023/12/30 02:20:33;;;;;;;9.73;1.55;;;;;;;6.59;100.00;100879.22;5025468;28;20274;-63
2023/12/30 02:22:59;;;;;;;6.53;1.63;;;;;;;6.56;100.00;100879.06;5026062;28;20107;-63
2023/12/30 02:25:24;;;;;;;11.27;2.05;;;;;;;6.55;100.00;100878.19;5026079;28;20053;-62
2023/12/30 02:27:49;;;;;;;10.10;1.95;;;;;;;6.56;100.00;100894.53;5025733;28;20167;-63
2023/12/30 02:30:15;;;;;;;7.07;2.15;;;;;;;6.57;100.00;100896.28;5025274;28;20132;-61
2023/12/30 02:32:41;;;;;;;8.00;1.48;;;;;;;6.57;100.00;100896.28;5024690;28;20678;-63
2023/12/30 02:35:07;;;;;;;7.32;2.25;;;;;;;6.58;100.00;100896.34;5027331;28;20088;-63
2023/12/30 02:37:32;;;;;;;11.18;1.77;;;;;;;6.62;100.00;100899.09;5025565;28;20591;-63
2023/12/30 02:39:58;;;;;;;8.80;1.80;;;;;;;6.69;100.00;100896.03;5025670;28;20108;-62
2023/12/30 02:42:23;;;;;;;7.43;1.50;;;;;;;6.65;100.00;100894.09;5027187;28;20118;-62
2023/12/30 02:44:49;;;;;;;4.40;1.40;;;;;;;6.68;100.00;100891.66;5025697;28;20115;-63
2023/12/30 02:47:14;;;;;;;6.65;1.63;;;;;;;6.64;100.00;100897.50;5021343;28;20424;-63
2023/12/30 02:49:43;;;;;;;5.47;1.80;;;;;;;6.59;100.00;100904.97;5021357;28;20034;-63
2023/12/30 02:52:09;;;;;;;4.88;2.08;;;;;;;6.57;100.00;100906.56;5025536;28;20052;-63
2023/12/30 02:54:37;;;;;;;8.63;2.50;;;;;;;6.55;100.00;100905.66;5025683;28;20033;-63
2023/12/30 02:57:03;;;;;;;10.02;3.20;;;;;;;6.56;100.00;100909.97;5026364;28;20040;-63
2023/12/30 02:59:29;;;;;;;6.90;2.75;;;;;;;6.56;100.00;100904.81;5026255;28;20505;-62
2023/12/30 03:01:55;;;;;;;10.88;2.13;;;;;;;6.55;100.00;100914.22;5028844;28;20029;-62
2023/12/30 03:04:20;;;;;;;10.40;2.60;;;;;;;6.54;100.00;100907.31;5028640;28;20040;-62
2023/12/30 03:06:45;;;;;;;9.55;2.03;;;;;;;6.52;100.00;100914.09;5029604;28;20033;-61
2023/12/30 03:09:11;;;;;;;7.57;2.05;;;;;;;6.50;100.00;100920.84;5028167;28;20480;-62
2023/12/30 03:11:37;;;;;;;10.50;2.40;;;;;;;6.46;100.00;100909.50;5030007;28;20025;-62
2023/12/30 03:14:02;;;;;;;12.80;2.55;;;;;;;6.44;100.00;100916.28;5028826;28;20063;-63
2023/12/30 03:16:27;;;;;;;8.50;2.28;;;;;;;6.43;100.00;100914.50;5027812;28;20498;-62
2023/12/30 03:18:52;;;;;;;10.13;2.08;;;;;;;6.41;100.00;100921.28;5026893;28;20044;-63
2023/12/30 03:21:18;;;;;;;13.27;2.25;;;;;;;6.39;100.00;100912.59;5028781;28;20018;-63
2023/12/30 03:23:43;;;;;;;13.50;2.95;;;;;;;6.39;100.00;100915.16;5029601;28;20029;-62
2023/12/30 03:26:09;;;;;;;8.23;1.75;;;;;;;6.40;100.00;100919.53;5027780;28;20026;-63
2023/12/30 03:28:35;;;;;;;9.10;2.30;;;;;;;6.33;100.00;100922.59;5029910;28;20028;-63
2023/12/30 03:31:00;;;;;;;12.60;2.28;;;;;;;6.29;100.00;100913.81;5028098;28;20037;-62
2023/12/30 03:33:26;;;;;;;9.60;2.20;;;;;;;6.24;100.00;100913.56;5027756;28;20044;-62
2023/12/30 03:35:52;;;;;;;11.82;2.42;;;;;;;6.24;100.00;100912.72;5027328;28;20025;-62
2023/12/30 03:38:17;;;;;;;10.52;2.25;;;;;;;6.22;100.00;100911.75;5029183;28;20705;-62
2023/12/30 03:40:43;;;;;;;13.73;2.60;;;;;;;6.21;100.00;100909.97;5028920;28;20029;-62
2023/12/30 03:43:08;;;;;;;14.27;2.00;;;;;;;6.19;100.00;100922.75;5028506;28;20263;-63
2023/12/30 03:45:33;;;;;;;12.38;2.17;;;;;;;6.19;100.00;100929.59;5027839;28;20053;-63
2023/12/30 03:47:59;;;;;;;11.18;1.88;;;;;;;6.17;100.00;100920.91;5029347;28;20448;-62
2023/12/30 03:50:24;;;;;;;10.05;2.22;;;;;;;6.17;100.00;100926.94;5019413;28;20060;-63
2023/12/30 03:52:51;;;;;;;7.00;1.50;;;;;;;6.17;100.00;100932.06;5025588;28;20445;-63
2023/12/30 03:55:16;;;;;;;16.33;2.53;;;;;;;6.11;100.00;100932.66;5027282;28;20080;-62
2023/12/30 03:57:42;;;;;;;10.60;1.85;;;;;;;6.12;100.00;100936.09;5028239;28;20401;-62
2023/12/30 04:00:07;;;;;;;5.80;1.63;;;;;;;6.11;100.00;100921.47;5027389;28;20091;-62
2023/12/30 04:02:33;;;;;;;11.02;2.83;;;;;;;6.09;100.00;100920.50;5026051;28;20427;-63
2023/12/30 04:04:58;;;;;;;10.23;2.42;;;;;;;6.10;100.00;100924.84;5026556;28;20127;-63
2023/12/30 04:07:23;;;;;;;9.52;2.83;;;;;;;6.09;100.00;100930.81;5028424;28;20071;-63
2023/12/30 04:09:48;;;;;;;15.77;2.10;;;;;;;6.08;100.00;100929.06;5028615;28;20041;-62
2023/12/30 04:12:14;;;;;;;12.35;1.65;;;;;;;6.06;100.00;100923.78;5022790;28;20393;-62
2023/12/30 04:14:40;;;;;;;10.52;2.63;;;;;;;6.04;100.00;100930.53;5025118;28;20036;-61
2023/12/30 04:17:05;;;;;;;10.60;1.85;;;;;;;6.03;100.00;100935.63;5028649;28;20036;-62
2023/12/30 04:19:30;;;;;;;9.40;1.63;;;;;;;5.98;100.00;100930.22;5025396;28;20034;-62
2023/12/30 04:21:56;;;;;;;13.50;2.20;;;;;;;6.00;100.00;100926.94;5029219;28;20029;-63
2023/12/30 04:24:21;;;;;;;16.33;2.03;;;;;;;6.01;100.00;100925.22;5026441;28;20033;-62
2023/12/30 04:26:47;;;;;;;10.68;2.33;;;;;;;5.96;100.00;100927.56;5017691;28;20484;-62
2023/12/30 04:29:12;;;;;;;11.35;2.45;;;;;;;5.94;100.00;100929.16;5024794;28;20036;-62
2023/12/30 04:31:37;;;;;;;7.32;1.50;;;;;;;5.93;100.00;100922.25;5026187;28;20035;-61
2023/12/30 04:34:03;;;;;;;10.02;1.75;;;;;;;5.90;100.00;100924.66;5021158;28;20485;-62
2023/12/30 04:36:28;;;;;;;8.02;2.03;;;;;;;5.89;100.00;100925.47;5025180;28;20116;-63
2023/12/30 04:38:53;;;;;;;11.23;1.80;;;;;;;5.87;100.00;100924.50;5022240;28;20083;-61
2023/12/30 04:41:19;;;;;;;8.45;1.65;;;;;;;5.84;100.00;100926.91;5027395;28;20029;-62
2023/12/30 04:43:44;;;;;;;7.53;1.75;;;;;;;5.79;100.00;100926.69;5022168;28;20059;-61
2023/12/30 04:46:11;;;;;;;11.27;2.15;;;;;;;5.75;100.00;100933.34;5025675;28;20053;-62
2023/12/30 04:48:37;;;;;;;9.20;1.88;;;;;;;5.78;100.00;100940.34;5025189;28;20083;-62
2023/12/30 04:51:02;;;;;;;8.65;1.75;;;;;;;5.83;100.00;100935.44;5025748;28;20033;-62
2023/12/30 04:53:28;;;;;;;9.75;1.85;;;;;;;5.76;100.00;100940.25;5016575;28;20112;-62
2023/12/30 04:55:53;;;;;;;11.57;2.05;;;;;;;5.79;100.00;100941.22;5022575;28;20029;-62
2023/12/30 04:58:18;;;;;;;13.40;2.13;;;;;;;5.81;100.00;100947.34;5025932;28;20473;-63
2023/12/30 05:00:43;;;;;;;12.50;2.25;;;;;;;5.79;100.00;100949.84;5020594;28;20060;-62
2023/12/30 05:03:09;;;;;;;10.73;2.03;;;;;;;5.79;100.00;100954.97;5025676;28;20037;-62
2023/12/30 05:05:34;;;;;;;11.07;1.80;;;;;;;5.79;100.00;100949.84;5025668;28;20466;-61
2023/12/30 05:08:01;;;;;;;14.38;3.28;;;;;;;5.79;100.00;100957.56;5027109;28;20037;-62
2023/12/30 05:10:26;;;;;;;8.98;1.70;;;;;;;5.82;100.00;100954.25;5023798;28;20443;-62
2023/12/30 05:12:52;;;;;;;14.35;2.45;;;;;;;5.82;100.00;100964.53;5025841;28;20044;-62
2023/12/30 05:15:17;;;;;;;16.83;2.80;;;;;;;5.76;100.00;100960.81;5025356;28;20025;-62
2023/12/30 05:17:42;;;;;;;9.32;1.92;;;;;;;5.76;100.00;100960.81;5025493;28;20029;-62
2023/12/30 05:20:08;;;;;;;11.70;1.73;;;;;;;5.76;100.00;100973.69;5026325;28;20029;-61
2023/12/30 05:22:34;;;;;;;9.60;2.28;;;;;;;5.77;100.00;100972.88;5023412;28;20649;-62
2023/12/30 05:25:00;;;;;;;13.30;2.47;;;;;;;5.76;100.00;100968.53;5027182;28;20040;-62
2023/12/30 05:27:25;;;;;;;11.60;1.95;;;;;;;5.76;100.00;100963.41;5024990;28;20474;-62
2023/12/30 05:29:50;;;;;;;14.27;2.50;;;;;;;5.76;100.00;100962.50;5025575;28;20082;-62
2023/12/30 05:32:15;;;;;;;10.50;2.10;;;;;;;5.74;100.00;100962.44;5022308;28;20044;-62
2023/12/30 05:34:41;;;;;;;19.83;3.05;;;;;;;5.76;100.00;100965.06;5024331;28;20477;-62
2023/12/30 05:37:06;;;;;;;12.15;1.75;;;;;;;5.75;100.00;100973.59;5026002;28;20284;-62
2023/12/30 05:39:31;;;;;;;12.63;2.28;;;;;;;5.72;100.00;100971.75;5022214;28;20041;-63
2023/12/30 05:41:57;;;;;;;13.35;2.53;;;;;;;5.69;100.00;100976.72;5025512;28;20021;-63
2023/12/30 05:44:22;;;;;;;11.90;2.47;;;;;;;5.70;100.00;100975.91;5024220;28;20061;-63
2023/12/30 05:46:47;;;;;;;11.68;2.83;;;;;;;5.70;100.00;100975.06;5026272;28;20410;-62
2023/12/30 05:49:12;;;;;;;11.82;2.33;;;;;;;5.67;100.00;100975.75;5025055;28;20055;-62
2023/12/30 05:51:42;;;;;;;12.02;2.20;;;;;;;5.69;100.00;100981.88;5025616;28;20038;-62
2023/12/30 05:54:10;;;;;;;18.10;2.22;;;;;;;5.71;100.00;100988.00;5025930;28;20083;-62
2023/12/30 05:56:35;;;;;;;9.70;2.42;;;;;;;5.72;100.00;100984.59;5020386;28;20033;-62
2023/12/30 05:59:00;;;;;;;15.00;2.13;;;;;;;5.68;100.00;100992.97;5024601;28;20111;-62
2023/12/30 06:01:26;;;;;;;14.85;2.63;;;;;;;5.65;100.00;100985.97;5025757;28;20052;-62
2023/12/30 06:03:51;;;;;;;15.75;2.75;;;;;;;5.68;100.00;100987.81;5026094;28;20449;-62
2023/12/30 06:06:16;;;;;;;12.98;3.13;;;;;;;5.70;100.00;100990.47;5026735;28;20029;-62
2023/12/30 06:08:41;;;;;;;13.60;2.08;;;;;;;5.65;100.00;100990.22;5024150;28;20460;-62
2023/12/30 06:11:07;;;;;;;11.65;2.45;;;;;;;5.64;100.00;100997.06;5026360;28;20024;-63
2023/12/30 06:13:34;;;;;;;13.77;2.10;;;;;;;5.64;100.00;100997.06;5025135;28;20029;-62
2023/12/30 06:15:59;;;;;;;17.30;3.20;;;;;;;5.63;100.00;100999.56;5016260;28;20041;-62
2023/12/30 06:18:30;;;;;;;13.68;3.00;;;;;;;5.59;100.00;101002.75;5026304;28;20638;-62
2023/12/30 06:20:55;;;;;;;8.73;2.20;;;;;;;5.63;100.00;101004.69;5025133;28;20044;-63
2023/12/30 06:23:21;;;;;;;14.02;2.55;;;;;;;5.61;100.00;100996.00;5024827;28;20389;-62
2023/12/30 06:25:46;;;;;;;14.88;2.05;;;;;;;5.57;100.00;101004.34;5026231;28;20032;-62
2023/12/30 06:28:11;;;;;;;11.48;2.03;;;;;;;5.55;100.00;101008.50;5025459;28;20567;-62
2023/12/30 06:30:36;;;;;;;12.07;2.08;;;;;;;5.55;100.00;101011.06;5024201;28;20049;-61
2023/12/30 06:33:06;;;;;;;11.80;2.35;;;;;;;5.55;100.00;101021.34;5024640;28;20064;-63
2023/12/30 06:35:32;;;;;;;13.05;2.05;;;;;;;5.55;100.00;101026.50;5024906;28;20021;-62
2023/12/30 06:37:58;;;;;;;10.90;2.00;;;;;;;5.55;100.00;101027.41;5028838;28;20036;-62
2023/12/30 06:40:23;;;;;;;13.82;2.53;;;;;;;5.55;100.00;101026.50;5028651;28;20026;-62
2023/12/30 06:42:48;;;;;;;13.48;2.67;;;;;;;5.53;100.00;101018.72;5028250;28;20562;-62
2023/12/30 06:45:13;;;;;;;12.45;1.92;;;;;;;5.50;100.00;101009.16;5026490;28;20037;-62
2023/12/30 06:47:39;;;;;;;9.90;2.38;;;;;;;5.51;100.00;101022.88;5029146;28;20375;-62
2023/12/30 06:50:05;;;;;;;15.15;1.92;;;;;;;5.52;100.00;101017.81;5027729;28;20022;-62
2023/12/30 06:52:30;;;;;;;12.35;2.05;;;;;;;5.50;100.00;101018.53;5027172;28;20458;-62
2023/12/30 06:54:55;;;;;;;8.30;2.20;;;;;;;5.47;100.00;101011.53;5029390;28;20385;-62
2023/12/30 06:57:24;;;;;;;9.07;1.90;;;;;;;5.49;100.00;101011.63;5026275;28;20025;-62
2023/12/30 06:59:49;;;;;;;12.38;3.15;;;;;;;5.50;100.00;101013.41;5025560;28;20056;-62
2023/12/30 07:02:14;;;;;;;12.85;2.38;;;;;;;5.47;100.00;101023.53;5027143;28;20421;-62
2023/12/30 07:04:40;;;;;;;14.82;1.98;;;;;;;5.47;100.00;101016.69;5028274;28;20536;-62
2023/12/30 07:07:05;;;;;;;11.68;2.30;;;;;;;5.51;100.00;101018.63;5027622;28;20032;-62
2023/12/30 07:09:30;;;;;;;9.90;2.42;;;;;;;5.49;100.00;101021.91;5023227;28;20030;-62
2023/12/30 07:11:56;;;;;;;9.13;2.20;;;;;;;5.48;100.00;101020.16;5022937;28;20037;-61
2023/12/30 07:14:21;;;;;;;11.73;2.60;;;;;;;5.49;100.00;101030.50;5027265;28;20033;-62
2023/12/30 07:16:50;;;;;;;14.80;3.60;;;;;;;5.49;100.00;101027.94;5020674;28;20041;-62
2023/12/30 07:19:15;;;;;;;8.85;2.03;;;;;;;5.58;100.00;101032.69;5027485;28;20049;-61
2023/12/30 07:21:41;;;;;;;10.63;2.33;;;;;;;5.55;100.00;101039.34;5024984;28;20072;-62
2023/12/30 07:24:06;;;;;;;14.60;2.53;;;;;;;5.55;100.00;101032.53;5027750;28;20461;-63
2023/12/30 07:26:32;;;;;;;17.45;2.35;;;;;;;5.60;100.00;101030.22;5025479;28;20060;-62
2023/12/30 07:28:58;;;;;;;7.45;2.00;;;;;;;5.57;100.00;101030.06;5019128;28;20033;-61
2023/12/30 07:31:23;;;;;;;14.88;2.38;;;;;;;5.53;100.00;101032.47;5025001;28;20038;-62
2023/12/30 07:33:49;;;;;;;15.35;2.67;;;;;;;5.53;100.00;101029.00;5021696;28;20036;-62
2023/12/30 07:36:14;;;;;;;11.23;1.77;;;;;;;5.52;100.00;101033.25;5026166;28;20039;-62
2023/12/30 07:38:40;;;;;;;8.93;1.80;;;;;;;5.56;100.00;101038.56;5025017;28;20060;-61
2023/12/30 07:41:05;;;;;;;13.57;2.50;;;;;;;5.59;100.00;101038.75;5024959;28;20037;-62
2023/12/30 07:43:30;;;;;;;6.57;1.67;;;;;;;5.61;100.00;101042.28;5024148;28;20056;-63
2023/12/30 07:45:55;;;;;;;11.95;2.00;;;;;;;5.62;100.00;101047.50;5023603;28;20481;-62
2023/12/30 07:48:21;;;;;;;9.60;1.88;;;;;;;5.59;100.00;101046.44;5024327;28;20065;-63
2023/12/30 07:50:46;;;;;;;11.30;2.10;;;;;;;5.57;100.00;101050.63;5025637;28;20033;-62
2023/12/30 07:53:11;;;;;;;13.25;2.15;;;;;;;5.59;100.00;101059.31;5025268;28;20243;-63
2023/12/30 07:55:36;;;;;;;14.20;2.50;;;;;;;5.57;100.00;101045.47;5026538;28;20021;-62
2023/12/30 07:58:02;;;;;;;18.17;2.45;;;;;;;5.56;100.00;101056.56;5025669;28;20086;-62
2023/12/30 08:00:27;;;;;;;14.32;2.25;;;;;;;5.55;100.00;101067.63;5026517;28;20021;-62
2023/12/30 08:02:52;;;;;;;9.88;2.70;;;;;;;5.57;100.00;101066.94;5023570;28;20072;-62
2023/12/30 08:05:18;;;;;;;12.05;2.53;;;;;;;5.55;100.00;101067.63;5017600;28;20784;-61
2023/12/30 08:07:43;;;;;;;11.93;2.92;;;;;;;5.55;100.00;101072.78;5026426;28;20356;-62
2023/12/30 08:10:11;;;;;;;12.85;1.80;;;;;;;5.57;100.00;101079.78;5023107;28;20064;-62
2023/12/30 08:12:36;;;;;;;10.73;1.90;;;;;;;5.58;100.00;101072.94;5024381;28;20470;-62
2023/12/30 08:15:02;;;;;;;12.52;2.17;;;;;;;5.57;100.00;101081.47;5025135;28;20055;-62
2023/12/30 08:17:27;;;;;;;13.63;2.22;;;;;;;5.57;100.00;101076.34;5026024;28;20112;-62
2023/12/30 08:19:53;;;;;;;16.45;2.75;;;;;;;5.59;100.00;101074.72;5025078;28;20022;-62
2023/12/30 08:22:18;;;;;;;13.38;2.15;;;;;;;5.58;100.00;101076.41;5022600;28;20075;-62
2023/12/30 08:24:44;;;;;;;11.43;2.40;;;;;;;5.59;100.00;101077.31;5020571;28;20033;-62
2023/12/30 08:27:09;;;;;;;11.60;2.10;;;;;;;5.60;100.00;101073.91;5026424;28;20032;-62
2023/12/30 08:29:35;;;;;;;16.08;2.13;;;;;;;5.66;100.00;101082.00;5018365;28;20032;-62
2023/12/30 08:32:00;;;;;;;14.63;2.88;;;;;;;5.66;100.00;101092.28;5025383;28;20408;-62
2023/12/30 08:34:27;;;;;;;13.02;2.28;;;;;;;5.70;100.00;101088.19;5017243;28;20033;-62
2023/12/30 08:36:53;;;;;;;13.77;3.05;;;;;;;5.73;100.00;101086.69;5023524;28;20037;-62
2023/12/30 08:39:18;;;;;;;10.00;2.50;;;;;;;5.79;100.00;101092.97;5025981;28;20033;-62
2023/12/30 08:41:44;;;;;;;13.00;2.42;;;;;;;5.80;100.00;101084.44;5024662;28;20021;-62
2023/12/30 08:44:09;;;;;;;15.18;2.63;;;;;;;5.88;100.00;101078.06;5025887;28;20118;-62
2023/12/30 08:46:34;;;;;;;16.25;2.63;;;;;;;5.88;100.00;101085.78;5024049;28;20167;-62
2023/12/30 08:49:00;;;;;;;10.57;2.22;;;;;;;5.89;100.00;101091.00;5023681;28;20037;-62
2023/12/30 08:51:28;;;;;;;18.13;2.90;;;;;;;5.95;100.00;101087.88;5024815;28;20078;-62
2023/12/30 08:53:54;;;;;;;14.63;3.53;;;;;;;6.03;100.00;101087.41;5024688;28;20018;-63
2023/12/30 08:56:20;;;;;;;12.93;2.80;;;;;;;6.03;100.00;101092.56;5021178;28;20049;-62
2023/12/30 08:58:46;;;;;;;12.85;2.60;;;;;;;6.08;100.00;101088.59;5025255;28;20034;-62
2023/12/30 09:01:11;;;;;;;23.38;4.07;;;;;;;6.12;100.00;101093.06;5024315;28;20025;-62
2023/12/30 09:03:37;;;;;;;17.15;3.50;;;;;;;6.15;100.00;101088.13;5023224;28;20034;-62
2023/12/30 09:06:02;;;;;;;10.45;3.47;;;;;;;6.17;100.00;101088.19;5023316;28;20022;-62
2023/12/30 09:08:28;;;;;;;19.88;2.75;;;;;;;6.19;100.00;101089.16;5026731;28;20040;-62
2023/12/30 09:10:53;;;;;;;16.98;2.38;;;;;;;6.18;100.00;101093.41;5023235;28;20055;-62
2023/12/30 09:13:18;;;;;;;16.80;3.30;;;;;;;6.24;100.00;101103.16;5026610;28;20370;-62
2023/12/30 09:15:44;;;;;;;17.10;3.05;;;;;;;6.23;100.00;101107.41;5025610;28;20025;-62
2023/12/30 09:18:09;;;;;;;15.05;3.38;;;;;;;6.29;100.00;101116.28;5026219;28;20328;-62
2023/12/30 09:20:34;;;;;;;16.25;2.78;;;;;;;6.27;100.00;101123.03;5024043;28;20599;-62
2023/12/30 09:22:59;;;;;;;19.98;3.20;;;;;;;6.30;100.00;101123.19;5024819;28;20101;-62
2023/12/30 09:25:25;;;;;;;12.80;3.10;;;;;;;6.33;100.00;101118.22;5025409;28;20029;-62
2023/12/30 09:27:50;;;;;;;15.32;4.20;;;;;;;6.41;100.00;101111.78;5026316;28;20025;-62
2023/12/30 09:30:16;;;;;;;13.57;3.35;;;;;;;6.42;100.00;101115.25;5025176;28;20048;-62
2023/12/30 09:32:41;;;;;;;13.77;2.92;;;;;;;6.45;100.00;101118.88;5027432;28;20036;-62
2023/12/30 09:35:07;;;;;;;16.00;4.18;;;;;;;6.44;100.00;101122.22;5026068;28;20529;-63
2023/12/30 09:37:32;;;;;;;14.50;3.00;;;;;;;6.48;100.00;101124.19;5025398;28;20073;-62
2023/12/30 09:39:59;;;;;;;10.73;2.67;;;;;;;6.49;100.00;101125.06;5026458;28;20033;-62
2023/12/30 09:42:26;;;;;;;11.57;3.53;;;;;;;6.55;100.00;101121.94;5012362;28;20498;-61
2023/12/30 09:44:51;;;;;;;9.98;3.15;;;;;;;6.50;100.00;101121.69;5024161;28;20140;-62
2023/12/30 09:47:17;;;;;;;15.13;3.30;;;;;;;6.53;100.00;101127.00;5022719;28;20041;-61
2023/12/30 09:49:44;;;;;;;15.82;3.97;;;;;;;6.56;100.00;101131.44;5024244;28;20475;-62
2023/12/30 09:52:09;;;;;;;12.38;3.92;;;;;;;6.60;100.00;101125.66;5025176;28;20044;-62
2023/12/30 09:54:36;;;;;;;16.00;3.70;;;;;;;6.61;100.00;101135.13;5025290;28;20767;-62
2023/12/30 09:57:02;;;;;;;10.95;3.40;;;;;;;6.58;100.00;101125.53;5023296;28;20040;-62
2023/12/30 09:59:30;;;;;;;14.20;3.65;;;;;;;6.66;100.00;101131.09;5024038;28;20594;-62
2023/12/30 10:01:56;;;;;;;15.30;3.53;;;;;;;6.72;100.00;101126.28;5026465;28;20029;-62
2023/12/30 10:04:21;;;;;;;12.75;3.55;;;;;;;6.75;100.00;101133.28;5026284;28;20473;-62
2023/12/30 10:06:49;;;;;;;12.70;4.05;;;;;;;6.73;100.00;101124.56;5024747;28;20074;-62
2023/12/30 10:09:15;;;;;;;15.13;4.53;;;;;;;6.82;100.00;101131.91;5030118;28;20033;-62
2023/12/30 10:11:43;;;;;;;18.00;4.10;;;;;;;6.85;100.00;101126.94;5031178;28;20030;-62
2023/12/30 10:14:09;;;;;;;18.77;4.32;;;;;;;6.86;100.00;101131.25;5027408;28;20041;-63
2023/12/30 10:16:34;;;;;;;14.65;4.20;;;;;;;6.92;100.00;101130.69;5028282;28;20104;-62
2023/12/30 10:19:00;;;;;;;13.23;3.78;;;;;;;6.91;100.00;101127.22;5029041;28;20048;-62
2023/12/30 10:21:26;;;;;;;17.02;5.13;;;;;;;6.99;100.00;101131.91;5029931;28;20021;-62
2023/12/30 10:23:53;;;;;;;15.50;4.72;;;;;;;6.94;100.00;101139.41;5029077;28;20234;-62
2023/12/30 10:26:21;;;;;;;15.07;4.97;;;;;;;7.04;100.00;101130.44;5029218;28;20029;-63
2023/12/30 10:28:46;;;;;;;17.85;4.18;;;;;;;7.02;100.00;101126.88;5029466;28;20486;-62
2023/12/30 10:31:16;;;;;;;18.17;4.70;;;;;;;7.01;100.00;101135.44;5029320;28;20213;-62
2023/12/30 10:33:42;;;;;;;14.00;3.80;;;;;;;7.03;100.00;101139.00;5024257;28;20064;-62
2023/12/30 10:36:08;;;;;;;9.52;3.47;;;;;;;7.10;100.00;101143.66;5028560;28;20034;-62
2023/12/30 10:38:36;;;;;;;12.73;3.47;;;;;;;7.13;100.00;101138.66;5030331;28;20678;-62
2023/12/30 10:41:01;;;;;;;13.00;4.30;;;;;;;7.16;100.00;101140.50;5029668;28;20462;-63
2023/12/30 10:43:26;;;;;;;18.38;5.55;;;;;;;7.26;100.00;101147.00;5027575;28;21202;-63
2023/12/30 10:46:03;;;;;;;12.52;3.58;;;;;;;7.20;100.00;101145.88;5029493;28;20049;-62
2023/12/30 10:48:33;;;;;;;13.52;3.83;;;;;;;7.26;100.00;101137.59;5028378;28;20473;-63
2023/12/30 10:51:00;;;;;;;13.68;4.68;;;;;;;7.28;100.00;101142.81;5030105;28;20021;-62
2023/12/30 10:53:34;;;;;;;11.02;4.13;;;;;;;7.26;100.00;101147.91;5028119;28;20051;-62
2023/12/30 10:56:03;;;;;;;13.18;4.05;;;;;;;7.27;100.00;101139.34;5027125;28;20029;-63
2023/12/30 10:58:35;;;;;;;13.18;3.58;;;;;;;7.34;100.00;101140.53;5028652;28;20226;-62
2023/12/30 11:01:01;;;;;;;15.38;4.47;;;;;;;7.37;100.00;101129.50;5017899;28;20032;-62
2023/12/30 11:03:29;;;;;;;13.98;3.88;;;;;;;7.43;100.00;101133.25;5027726;28;20112;-62
2023/12/30 11:06:16;;;;;;;21.63;4.40;;;;;;;7.47;100.00;101125.66;5028453;28;20056;-62
2023/12/30 11:08:44;;;;;;;18.70;4.13;;;;;;;7.44;100.00;101123.84;5027985;28;20167;-63
2023/12/30 11:11:12;;;;;;;14.48;4.10;;;;;;;7.43;100.00;101120.38;5028841;28;20036;-62
2023/12/30 11:13:41;;;;;;;14.30;3.53;;;;;;;7.51;100.00;101109.53;5029432;28;20018;-62